createdAt,value
2023-03-27T00:00:44.799Z,0.47
2023-03-27T00:01:46.544Z,0.40
2023-03-27T00:02:49.987Z,0.50
2023-03-27T00:03:53.463Z,0.68
2023-03-27T00:04:55.799Z,0.85
2023-03-27T00:06:09.329Z,0.50
2023-03-27T00:07:11.480Z,0.68
2023-03-27T00:08:13.471Z,0.70
2023-03-27T00:09:16.990Z,0.60
2023-03-27T00:10:18.947Z,0.50
2023-03-27T00:11:21.923Z,0.60
2023-03-27T00:12:23.627Z,0.80
2023-03-27T00:13:25.643Z,0.80
2023-03-27T00:14:27.611Z,0.98
2023-03-27T00:15:33.890Z,0.90
2023-03-27T00:16:35.767Z,0.80
2023-03-27T00:17:37.575Z,0.82
2023-03-27T00:18:39.469Z,1.10
2023-03-27T00:19:41.216Z,1.10
2023-03-27T00:20:43.682Z,0.80
2023-03-27T00:21:45.519Z,1.00
2023-03-27T00:22:48.103Z,0.98
2023-03-27T00:23:49.959Z,0.90
2023-03-27T00:24:51.656Z,0.90
2023-03-27T00:25:54.569Z,0.90
2023-03-27T00:26:56.307Z,0.80
2023-03-27T00:27:58.631Z,1.02
2023-03-27T00:29:00.397Z,1.10
2023-03-27T00:30:06.300Z,1.10
2023-03-27T00:31:13.106Z,1.20
2023-03-27T00:32:14.921Z,1.03
2023-03-27T00:33:16.680Z,1.00
2023-03-27T00:34:18.441Z,1.10
2023-03-27T00:35:20.242Z,1.10
2023-03-27T00:36:21.970Z,1.40
2023-03-27T00:37:23.807Z,1.30
2023-03-27T00:38:25.613Z,1.40
2023-03-27T00:39:28.291Z,1.50
2023-03-27T00:40:32.065Z,1.17
2023-03-27T00:41:33.975Z,1.40
2023-03-27T00:42:36.302Z,1.58
2023-03-27T00:43:44.892Z,1.70
2023-03-27T00:44:46.761Z,1.50
2023-03-27T00:45:51.995Z,1.30
2023-03-27T00:46:56.967Z,0.75
2023-03-27T00:48:03.365Z,0.85
2023-03-27T00:49:08.281Z,1.25
2023-03-27T00:50:14.376Z,1.20
2023-03-27T00:51:17.139Z,1.45
2023-03-27T00:52:21.282Z,0.90
2023-03-27T00:53:26.773Z,1.08
2023-03-27T00:54:34.928Z,1.13
2023-03-27T00:55:39.817Z,1.75
2023-03-27T00:56:42.024Z,1.30
2023-03-27T00:57:46.590Z,1.48
2023-03-27T00:58:56.884Z,1.27
2023-03-27T01:00:00.553Z,1.20
2023-03-27T01:01:02.293Z,1.20
2023-03-27T01:02:06.460Z,1.55
2023-03-27T01:03:09.426Z,1.23
2023-03-27T01:04:11.443Z,1.33
2023-03-27T01:05:13.808Z,1.58
2023-03-27T01:06:17.420Z,1.10
2023-03-27T01:07:19.806Z,1.10
2023-03-27T01:08:22.915Z,1.77
2023-03-27T01:09:27.035Z,0.93
2023-03-27T01:10:52.232Z,1.23
2023-03-27T01:12:31.612Z,1.27
2023-03-27T01:13:42.633Z,0.90
2023-03-27T01:15:24.923Z,0.90
2023-03-27T01:16:54.048Z,1.15
2023-03-27T01:18:34.963Z,0.93
2023-03-27T01:19:58.421Z,0.85
2023-03-27T01:21:06.170Z,0.70
2023-03-27T01:22:16.490Z,1.02
2023-03-27T01:24:01.194Z,1.48
2023-03-27T01:25:24.143Z,1.00
2023-03-27T01:26:51.685Z,0.65
2023-03-27T01:28:02.883Z,0.85
2023-03-27T01:29:13.704Z,1.33
2023-03-27T01:30:33.740Z,0.80
2023-03-27T01:31:41.515Z,0.70
2023-03-27T01:33:01.264Z,1.80
2023-03-27T01:34:27.908Z,1.38
2023-03-27T01:35:56.987Z,1.58
2023-03-27T01:37:18.990Z,0.70
2023-03-27T01:38:41.681Z,0.65
2023-03-27T01:39:58.148Z,0.95
2023-03-27T01:41:05.473Z,0.73
2023-03-27T01:42:30.843Z,0.77
2023-03-27T01:43:47.565Z,1.17
2023-03-27T01:45:17.020Z,1.70
2023-03-27T01:46:29.837Z,0.82
2023-03-27T01:47:40.891Z,0.60
2023-03-27T01:49:11.901Z,1.10
2023-03-27T01:50:23.743Z,0.90
2023-03-27T01:51:48.630Z,0.82
2023-03-27T01:52:57.554Z,1.60
2023-03-27T01:54:07.752Z,1.13
2023-03-27T01:55:19.015Z,1.43
2023-03-27T01:56:32.416Z,1.35
2023-03-27T01:57:50.553Z,3.10
2023-03-27T01:58:59.500Z,2.65
2023-03-27T02:00:19.472Z,1.40
2023-03-27T02:01:31.038Z,1.17
2023-03-27T02:02:34.834Z,1.50
2023-03-27T02:03:42.408Z,0.95
2023-03-27T02:04:56.525Z,1.52
2023-03-27T02:06:07.839Z,2.30
2023-03-27T02:07:14.565Z,1.87
2023-03-27T02:08:24.700Z,1.70
2023-03-27T02:09:46.012Z,3.25
2023-03-27T02:10:53.965Z,2.33
2023-03-27T02:12:03.032Z,1.00
2023-03-27T02:13:09.966Z,1.15
2023-03-27T02:14:23.351Z,1.30
2023-03-27T02:15:33.743Z,1.45
2023-03-27T02:16:41.254Z,1.42
2023-03-27T02:18:12.226Z,1.40
2023-03-27T02:19:23.233Z,1.60
2023-03-27T02:20:24.959Z,2.50
2023-03-27T02:21:26.987Z,2.42
2023-03-27T02:22:37.524Z,1.90
2023-03-27T02:23:40.552Z,1.77
2023-03-27T02:24:43.589Z,1.92
2023-03-27T02:25:46.540Z,1.50
2023-03-27T02:26:53.069Z,1.95
2023-03-27T02:28:12.587Z,1.33
2023-03-27T02:29:38.126Z,1.00
2023-03-27T02:31:33.303Z,1.27
2023-03-27T02:33:17.128Z,1.27
2023-03-27T02:34:50.281Z,1.10
2023-03-27T02:36:01.348Z,1.45
2023-03-27T02:37:37.504Z,1.45
2023-03-27T02:38:46.784Z,1.73
2023-03-27T02:39:48.958Z,1.02
2023-03-27T02:40:53.738Z,0.98
2023-03-27T02:42:14.162Z,1.40
2023-03-27T02:43:27.177Z,1.20
2023-03-27T02:44:51.760Z,0.87
2023-03-27T02:46:03.054Z,1.70
2023-03-27T02:47:07.699Z,4.68
2023-03-27T02:48:33.806Z,1.70
2023-03-27T02:49:40.177Z,0.80
2023-03-27T02:50:52.406Z,1.80
2023-03-27T02:52:17.250Z,1.20
2023-03-27T02:53:23.228Z,1.63
2023-03-27T02:54:34.408Z,0.93
2023-03-27T02:55:41.355Z,1.48
2023-03-27T02:57:03.399Z,1.50
2023-03-27T02:58:16.898Z,1.75
2023-03-27T02:59:28.096Z,1.00
2023-03-27T03:00:34.578Z,1.50
2023-03-27T03:01:38.405Z,1.40
2023-03-27T03:02:41.307Z,1.55
2023-03-27T03:03:55.039Z,2.45
2023-03-27T03:05:12.799Z,3.55
2023-03-27T03:06:14.841Z,1.60
2023-03-27T03:07:18.548Z,1.83
2023-03-27T03:08:21.640Z,1.33
2023-03-27T03:09:25.265Z,1.55
2023-03-27T03:10:27.640Z,1.70
2023-03-27T03:11:30.110Z,1.73
2023-03-27T03:12:31.831Z,3.38
2023-03-27T03:13:33.682Z,2.90
2023-03-27T03:14:39.215Z,2.50
2023-03-27T03:15:41.006Z,2.72
2023-03-27T03:16:42.870Z,1.83
2023-03-27T03:17:45.363Z,2.15
2023-03-27T03:18:47.115Z,1.90
2023-03-27T03:19:49.437Z,1.63
2023-03-27T03:20:54.220Z,1.90
2023-03-27T03:21:56.448Z,2.83
2023-03-27T03:22:58.211Z,2.30
2023-03-27T03:24:00.198Z,2.05
2023-03-27T03:25:02.254Z,1.90
2023-03-27T03:26:04.245Z,1.80
2023-03-27T03:27:06.955Z,1.80
2023-03-27T03:28:10.610Z,1.52
2023-03-27T03:29:14.210Z,1.93
2023-03-27T03:30:16.902Z,1.35
2023-03-27T03:31:19.528Z,1.45
2023-03-27T03:32:21.372Z,1.55
2023-03-27T03:33:23.085Z,1.73
2023-03-27T03:34:24.783Z,2.00
2023-03-27T03:35:26.567Z,1.42
2023-03-27T03:36:30.735Z,1.13
2023-03-27T03:37:38.792Z,1.48
2023-03-27T03:38:42.144Z,1.38
2023-03-27T03:39:43.919Z,1.40
2023-03-27T03:40:45.764Z,1.23
2023-03-27T03:41:47.711Z,1.38
2023-03-27T03:42:52.030Z,1.35
2023-03-27T03:43:53.753Z,1.13
2023-03-27T03:44:55.708Z,1.02
2023-03-27T03:45:58.172Z,1.27
2023-03-27T03:47:00.212Z,0.80
2023-03-27T03:48:02.154Z,0.40
2023-03-27T03:49:07.011Z,1.20
2023-03-27T03:50:09.399Z,1.40
2023-03-27T03:51:11.176Z,1.23
2023-03-27T03:52:12.975Z,0.90
2023-03-27T03:53:17.218Z,1.05
2023-03-27T03:54:18.936Z,1.00
2023-03-27T03:55:20.660Z,1.38
2023-03-27T03:56:22.410Z,1.80
2023-03-27T03:57:24.260Z,1.80
2023-03-27T03:58:34.896Z,0.57
2023-03-27T03:59:37.040Z,1.48
2023-03-27T04:00:39.973Z,0.90
2023-03-27T04:01:41.739Z,0.65
2023-03-27T04:02:43.889Z,0.50
2023-03-27T04:03:45.725Z,1.10
2023-03-27T04:04:47.509Z,0.82
2023-03-27T04:05:50.933Z,1.10
2023-03-27T04:06:58.065Z,1.02
2023-03-27T04:08:00.031Z,1.40
2023-03-27T04:09:01.807Z,0.80
2023-03-27T04:10:04.117Z,0.50
2023-03-27T04:11:06.058Z,1.70
2023-03-27T04:12:07.869Z,1.00
2023-03-27T04:13:09.663Z,1.00
2023-03-27T04:14:11.348Z,1.30
2023-03-27T04:15:13.094Z,0.90
2023-03-27T04:16:15.289Z,1.35
2023-03-27T04:17:17.148Z,1.55
2023-03-27T04:18:19.780Z,1.10
2023-03-27T04:19:22.411Z,0.82
2023-03-27T04:20:26.497Z,0.93
2023-03-27T04:21:28.237Z,1.37
2023-03-27T04:22:29.976Z,0.88
2023-03-27T04:23:31.766Z,1.02
2023-03-27T04:24:33.714Z,0.90
2023-03-27T04:25:35.450Z,1.00
2023-03-27T04:26:37.176Z,1.65
2023-03-27T04:27:39.312Z,1.35
2023-03-27T04:28:41.232Z,1.17
2023-03-27T04:29:47.183Z,1.33
2023-03-27T04:30:50.543Z,1.13
2023-03-27T04:31:52.448Z,1.23
2023-03-27T04:32:54.975Z,1.30
2023-03-27T04:33:56.824Z,1.25
2023-03-27T04:34:58.654Z,1.10
2023-03-27T04:36:06.249Z,1.02
2023-03-27T04:37:09.241Z,1.35
2023-03-27T04:38:12.505Z,1.23
2023-03-27T04:39:16.405Z,0.65
2023-03-27T04:40:18.393Z,0.95
2023-03-27T04:41:21.236Z,1.20
2023-03-27T04:42:23.524Z,1.00
2023-03-27T04:43:26.130Z,1.02
2023-03-27T04:44:27.934Z,1.13
2023-03-27T04:45:29.681Z,1.30
2023-03-27T04:46:31.572Z,0.90
2023-03-27T04:47:37.838Z,1.10
2023-03-27T04:48:39.696Z,1.50
2023-03-27T04:49:43.698Z,1.10
2023-03-27T04:50:49.384Z,1.08
2023-03-27T04:51:51.226Z,0.85
2023-03-27T04:52:58.537Z,1.10
2023-03-27T04:54:04.688Z,1.35
2023-03-27T04:55:07.864Z,0.70
2023-03-27T04:56:10.703Z,1.25
2023-03-27T04:57:12.926Z,1.02
2023-03-27T04:58:15.556Z,1.75
2023-03-27T04:59:17.340Z,1.95
2023-03-27T05:00:19.918Z,1.80
2023-03-27T05:01:22.823Z,1.48
2023-03-27T05:02:26.442Z,1.58
2023-03-27T05:03:28.308Z,1.87
2023-03-27T05:04:31.952Z,1.70
2023-03-27T05:05:34.788Z,1.33
2023-03-27T05:06:37.460Z,1.45
2023-03-27T05:07:44.366Z,1.33
2023-03-27T05:08:46.108Z,1.42
2023-03-27T05:09:47.861Z,0.80
2023-03-27T05:10:49.709Z,1.38
2023-03-27T05:11:52.184Z,1.30
2023-03-27T05:12:56.443Z,1.10
2023-03-27T05:13:59.661Z,1.23
2023-03-27T05:15:05.990Z,1.48
2023-03-27T05:16:10.105Z,1.30
2023-03-27T05:17:11.859Z,1.13
2023-03-27T05:18:13.660Z,1.00
2023-03-27T05:19:15.472Z,1.73
2023-03-27T05:20:17.258Z,1.15
2023-03-27T05:21:19.396Z,1.30
2023-03-27T05:22:21.785Z,1.38
2023-03-27T05:23:23.568Z,1.08
2023-03-27T05:24:25.411Z,1.20
2023-03-27T05:25:28.785Z,1.38
2023-03-27T05:26:31.190Z,1.08
2023-03-27T05:27:32.956Z,1.05
2023-03-27T05:28:34.716Z,0.93
2023-03-27T05:29:46.763Z,1.10
2023-03-27T05:30:49.911Z,0.80
2023-03-27T05:31:52.336Z,0.73
2023-03-27T05:32:54.357Z,1.05
2023-03-27T05:33:56.157Z,1.25
2023-03-27T05:34:58.247Z,1.00
2023-03-27T05:36:00.033Z,1.00
2023-03-27T05:37:05.721Z,1.00
2023-03-27T05:38:08.320Z,1.40
2023-03-27T05:39:10.088Z,0.85
2023-03-27T05:40:13.729Z,0.70
2023-03-27T05:41:18.410Z,1.40
2023-03-27T05:42:20.151Z,0.90
2023-03-27T05:43:21.929Z,0.80
2023-03-27T05:44:25.510Z,1.20
2023-03-27T05:45:27.480Z,1.77
2023-03-27T05:46:29.397Z,1.10
2023-03-27T05:47:31.331Z,1.20
2023-03-27T05:48:33.299Z,1.20
2023-03-27T05:49:35.045Z,0.82
2023-03-27T05:50:37.268Z,1.10
2023-03-27T05:51:39.092Z,1.08
2023-03-27T05:52:59.016Z,1.20
2023-03-27T05:54:00.813Z,1.20
2023-03-27T05:55:02.537Z,1.17
2023-03-27T05:56:05.015Z,0.97
2023-03-27T05:57:07.974Z,0.95
2023-03-27T05:58:11.702Z,1.30
2023-03-27T05:59:13.587Z,1.67
2023-03-27T06:00:16.697Z,1.08
2023-03-27T06:01:18.877Z,1.20
2023-03-27T06:02:21.896Z,1.45
2023-03-27T06:03:24.736Z,0.73
2023-03-27T06:04:28.455Z,0.77
2023-03-27T06:05:30.485Z,1.25
2023-03-27T06:06:32.580Z,1.20
2023-03-27T06:07:34.302Z,1.25
2023-03-27T06:08:36.658Z,1.30
2023-03-27T06:09:39.695Z,0.95
2023-03-27T06:10:43.468Z,0.82
2023-03-27T06:11:46.125Z,1.15
2023-03-27T06:12:50.949Z,0.98
2023-03-27T06:13:52.778Z,0.50
2023-03-27T06:14:54.522Z,1.10
2023-03-27T06:15:56.608Z,0.45
2023-03-27T06:16:58.605Z,1.20
2023-03-27T06:18:00.430Z,1.13
2023-03-27T06:19:02.942Z,0.68
2023-03-27T06:20:15.466Z,0.98
2023-03-27T06:21:17.845Z,0.70
2023-03-27T06:22:19.571Z,0.80
2023-03-27T06:23:21.721Z,1.63
2023-03-27T06:24:23.601Z,0.47
2023-03-27T06:25:26.790Z,0.75
2023-03-27T06:26:28.641Z,0.43
2023-03-27T06:27:31.738Z,1.00
2023-03-27T06:28:33.633Z,0.77
2023-03-27T06:29:37.281Z,0.82
2023-03-27T06:30:39.146Z,0.82
2023-03-27T06:31:40.932Z,1.10
2023-03-27T06:32:47.592Z,1.42
2023-03-27T06:33:49.336Z,0.90
2023-03-27T06:34:51.121Z,0.70
2023-03-27T06:35:55.121Z,0.98
2023-03-27T06:36:59.976Z,0.85
2023-03-27T06:38:04.720Z,0.70
2023-03-27T06:39:06.504Z,0.65
2023-03-27T06:40:10.280Z,0.70
2023-03-27T06:41:12.142Z,1.20
2023-03-27T06:42:13.877Z,1.27
2023-03-27T06:43:18.912Z,1.17
2023-03-27T06:44:20.699Z,1.08
2023-03-27T06:45:24.433Z,1.00
2023-03-27T06:46:35.279Z,0.70
2023-03-27T06:47:54.523Z,0.55
2023-03-27T06:48:57.803Z,0.67
2023-03-27T06:49:59.679Z,0.75
2023-03-27T06:51:01.875Z,0.45
2023-03-27T06:52:03.775Z,0.75
2023-03-27T06:53:15.928Z,0.40
2023-03-27T06:54:25.662Z,0.80
2023-03-27T06:55:29.663Z,0.90
2023-03-27T06:56:31.669Z,0.60
2023-03-27T06:57:33.427Z,0.70
2023-03-27T06:58:35.171Z,0.63
2023-03-27T06:59:36.924Z,0.50
2023-03-27T07:00:40.867Z,0.70
2023-03-27T07:01:43.917Z,0.98
2023-03-27T07:02:56.546Z,0.57
2023-03-27T07:03:58.316Z,0.50
2023-03-27T07:05:04.828Z,0.57
2023-03-27T07:06:07.528Z,0.57
2023-03-27T07:07:09.341Z,0.38
2023-03-27T07:09:18.526Z,0.32
2023-03-27T07:10:21.134Z,1.30
2023-03-27T07:11:22.857Z,0.60
2023-03-27T07:12:24.984Z,1.02
2023-03-27T07:13:27.149Z,0.50
2023-03-27T07:14:28.887Z,0.50
2023-03-27T07:15:30.754Z,0.70
2023-03-27T07:16:32.591Z,0.35
2023-03-27T07:17:45.887Z,0.45
2023-03-27T07:18:50.281Z,0.52
2023-03-27T07:19:52.092Z,0.57
2023-03-27T07:20:53.813Z,0.43
2023-03-27T07:21:55.813Z,0.40
2023-03-27T07:22:58.766Z,0.50
2023-03-27T07:24:00.525Z,0.40
2023-03-27T07:25:02.569Z,0.30
2023-03-27T07:26:04.802Z,0.30
2023-03-27T07:27:07.798Z,0.47
2023-03-27T07:28:13.281Z,0.40
2023-03-27T07:29:15.002Z,0.52
2023-03-27T07:30:17.267Z,0.77
2023-03-27T07:32:36.107Z,0.95
2023-03-27T07:33:38.751Z,0.52
2023-03-27T07:34:41.095Z,0.60
2023-03-27T07:35:45.487Z,0.40
2023-03-27T07:36:47.294Z,0.40
2023-03-27T07:37:49.018Z,0.80
2023-03-27T07:38:51.108Z,0.40
2023-03-27T07:39:53.128Z,0.63
2023-03-27T07:40:54.859Z,0.70
2023-03-27T07:41:56.580Z,0.40
2023-03-27T07:42:58.392Z,0.40
2023-03-27T07:44:00.609Z,0.47
2023-03-27T07:45:04.314Z,0.47
2023-03-27T07:46:06.624Z,0.50
2023-03-27T07:47:08.420Z,0.80
2023-03-27T07:48:16.727Z,0.60
2023-03-27T07:49:19.146Z,0.10
2023-03-27T07:50:21.815Z,0.50
2023-03-27T07:51:24.241Z,0.55
2023-03-27T07:52:26.004Z,0.70
2023-03-27T07:53:33.285Z,0.52
2023-03-27T07:54:36.642Z,0.68
2023-03-27T07:55:38.357Z,0.65
2023-03-27T07:56:40.884Z,0.30
2023-03-27T07:57:59.220Z,0.45
2023-03-27T07:59:03.955Z,0.50
2023-03-27T08:00:11.611Z,0.55
2023-03-27T08:01:13.542Z,0.52
2023-03-27T08:02:15.945Z,0.25
2023-03-27T08:03:19.162Z,0.53
2023-03-27T08:04:21.178Z,0.50
2023-03-27T08:05:23.081Z,0.45
2023-03-27T08:06:26.038Z,0.50
2023-03-27T08:07:27.760Z,0.40
2023-03-27T08:08:29.849Z,0.52
2023-03-27T08:09:31.977Z,0.35
2023-03-27T08:10:33.955Z,0.60
2023-03-27T08:11:37.461Z,0.45
2023-03-27T08:12:39.257Z,0.40
2023-03-27T08:13:41.140Z,0.40
2023-03-27T08:14:45.629Z,0.32
2023-03-27T08:15:47.984Z,0.73
2023-03-27T08:16:49.694Z,0.30
2023-03-27T08:17:54.462Z,0.65
2023-03-27T08:18:57.736Z,0.75
2023-03-27T08:20:09.179Z,0.20
2023-03-27T08:21:11.730Z,0.25
2023-03-27T08:22:13.973Z,0.32
2023-03-27T08:23:16.312Z,0.35
2023-03-27T08:24:18.056Z,0.30
2023-03-27T08:25:22.398Z,0.47
2023-03-27T08:26:26.465Z,0.50
2023-03-27T08:27:28.711Z,0.50
2023-03-27T08:28:32.187Z,0.25
2023-03-27T08:29:33.922Z,0.40
2023-03-27T08:30:36.392Z,0.45
2023-03-27T08:31:38.697Z,0.30
2023-03-27T08:32:41.781Z,0.50
2023-03-27T08:33:43.759Z,0.40
2023-03-27T08:34:45.659Z,0.37
2023-03-27T08:35:51.363Z,0.30
2023-03-27T08:36:53.364Z,0.40
2023-03-27T08:37:55.074Z,0.50
2023-03-27T08:38:57.253Z,0.50
2023-03-27T08:39:59.033Z,0.60
2023-03-27T08:41:03.632Z,0.60
2023-03-27T08:42:08.370Z,0.45
2023-03-27T08:43:16.113Z,0.60
2023-03-27T08:44:21.345Z,0.20
2023-03-27T08:45:37.160Z,0.37
2023-03-27T08:46:47.740Z,0.80
2023-03-27T08:48:01.111Z,0.60
2023-03-27T08:49:14.936Z,0.60
2023-03-27T08:50:33.464Z,0.57
2023-03-27T08:51:49.328Z,0.70
2023-03-27T08:52:51.648Z,0.38
2023-03-27T08:54:18.227Z,0.50
2023-03-27T08:55:26.268Z,0.60
2023-03-27T08:56:28.141Z,0.80
2023-03-27T08:57:32.576Z,0.20
2023-03-27T08:58:34.575Z,0.70
2023-03-27T08:59:36.973Z,0.43
2023-03-27T09:00:40.457Z,0.17
2023-03-27T09:02:03.871Z,0.50
2023-03-27T09:03:15.587Z,0.20
2023-03-27T09:04:29.283Z,0.30
2023-03-27T09:05:42.736Z,0.40
2023-03-27T09:07:11.562Z,0.20
2023-03-27T09:08:25.775Z,0.30
2023-03-27T09:09:46.704Z,0.30
2023-03-27T09:10:51.875Z,0.60
2023-03-27T09:12:09.837Z,0.35
2023-03-27T09:13:49.373Z,0.22
2023-03-27T09:15:16.714Z,0.40
2023-03-27T09:16:30.231Z,0.52
2023-03-27T09:17:44.681Z,0.50
2023-03-27T09:19:20.927Z,0.73
2023-03-27T09:20:33.491Z,0.20
2023-03-27T09:21:53.420Z,0.20
2023-03-27T09:23:03.420Z,0.30
2023-03-27T09:24:11.675Z,0.52
2023-03-27T09:25:32.571Z,0.50
2023-03-27T09:26:37.620Z,0.47
2023-03-27T09:27:39.457Z,0.50
2023-03-27T09:29:01.789Z,0.40
2023-03-27T09:30:19.727Z,0.30
2023-03-27T09:31:32.728Z,0.50
2023-03-27T09:32:35.047Z,0.40
2023-03-27T09:33:41.367Z,0.40
2023-03-27T09:34:44.101Z,0.40
2023-03-27T09:35:46.668Z,0.40
2023-03-27T09:36:49.566Z,0.40
2023-03-27T09:38:03.587Z,0.22
2023-03-27T09:39:08.451Z,0.30
2023-03-27T09:40:33.747Z,0.35
2023-03-27T09:41:44.504Z,0.40
2023-03-27T09:42:48.414Z,0.40
2023-03-27T09:44:09.215Z,0.20
2023-03-27T09:45:12.976Z,0.40
2023-03-27T09:46:19.378Z,0.70
2023-03-27T09:47:33.210Z,0.35
2023-03-27T09:48:47.005Z,0.70
2023-03-27T09:50:26.290Z,0.30
2023-03-27T09:51:36.454Z,0.68
2023-03-27T09:52:40.338Z,0.50
2023-03-27T09:53:58.187Z,0.63
2023-03-27T09:55:00.297Z,0.50
2023-03-27T09:56:07.152Z,0.63
2023-03-27T09:57:12.666Z,0.55
2023-03-27T09:58:23.535Z,0.90
2023-03-27T09:59:39.667Z,0.43
2023-03-27T10:00:41.488Z,0.32
2023-03-27T10:01:48.709Z,0.50
2023-03-27T10:03:18.373Z,0.30
2023-03-27T10:04:23.019Z,0.60
2023-03-27T10:05:25.221Z,0.38
2023-03-27T10:06:28.339Z,0.70
2023-03-27T10:07:30.235Z,0.40
2023-03-27T10:08:42.090Z,0.32
2023-03-27T10:09:43.808Z,0.10
2023-03-27T10:10:55.029Z,0.43
2023-03-27T10:12:20.764Z,0.40
2023-03-27T10:13:29.157Z,0.25
2023-03-27T10:14:34.619Z,0.47
2023-03-27T10:15:39.140Z,0.30
2023-03-27T10:16:42.400Z,0.47
2023-03-27T10:17:49.063Z,0.30
2023-03-27T10:18:55.702Z,0.40
2023-03-27T10:20:20.851Z,0.28
2023-03-27T10:21:33.208Z,0.40
2023-03-27T10:22:40.077Z,0.40
2023-03-27T10:23:46.305Z,0.30
2023-03-27T10:24:48.678Z,0.40
2023-03-27T10:25:52.510Z,0.80
2023-03-27T10:26:55.527Z,0.65
2023-03-27T10:28:08.082Z,0.38
2023-03-27T10:29:24.388Z,0.32
2023-03-27T10:30:34.224Z,0.20
2023-03-27T10:31:40.112Z,0.20
2023-03-27T10:32:44.833Z,0.53
2023-03-27T10:33:47.361Z,0.57
2023-03-27T10:34:55.625Z,0.38
2023-03-27T10:35:58.882Z,0.28
2023-03-27T10:37:17.543Z,0.30
2023-03-27T10:38:22.558Z,0.25
2023-03-27T10:39:35.762Z,0.70
2023-03-27T10:40:39.480Z,0.40
2023-03-27T10:41:41.743Z,0.30
2023-03-27T10:42:43.969Z,0.40
2023-03-27T10:43:48.352Z,0.40
2023-03-27T10:44:50.973Z,0.28
2023-03-27T10:45:59.757Z,0.30
2023-03-27T10:47:02.040Z,0.32
2023-03-27T10:48:07.712Z,0.13
2023-03-27T10:49:30.877Z,0.38
2023-03-27T10:50:43.989Z,0.13
2023-03-27T10:51:46.857Z,0.15
2023-03-27T10:53:23.156Z,0.40
2023-03-27T10:55:35.790Z,0.88
2023-03-27T10:56:52.828Z,0.20
2023-03-27T10:57:59.166Z,0.10
2023-03-27T10:59:11.816Z,0.55
2023-03-27T11:00:18.929Z,0.50
2023-03-27T11:01:38.387Z,0.60
2023-03-27T11:02:53.460Z,0.52
2023-03-27T11:04:09.021Z,0.43
2023-03-27T11:05:13.651Z,1.08
2023-03-27T11:06:18.030Z,0.55
2023-03-27T11:07:29.268Z,0.25
2023-03-27T11:08:58.380Z,0.50
2023-03-27T11:10:12.809Z,0.50
2023-03-27T11:11:25.285Z,0.75
2023-03-27T11:12:31.865Z,0.55
2023-03-27T11:13:38.410Z,0.20
2023-03-27T11:14:55.138Z,0.30
2023-03-27T11:16:32.666Z,0.20
2023-03-27T11:17:55.578Z,0.50
2023-03-27T11:19:03.231Z,0.47
2023-03-27T11:20:16.228Z,0.40
2023-03-27T11:21:23.649Z,0.50
2023-03-27T11:22:42.110Z,0.40
2023-03-27T11:23:58.013Z,0.50
2023-03-27T11:25:24.184Z,0.30
2023-03-27T11:26:59.920Z,0.40
2023-03-27T11:28:31.155Z,0.30
2023-03-27T11:30:08.312Z,0.63
2023-03-27T11:31:38.272Z,0.68
2023-03-27T11:33:13.750Z,0.28
2023-03-27T11:34:28.813Z,0.30
2023-03-27T11:35:39.058Z,0.40
2023-03-27T11:36:51.403Z,0.50
2023-03-27T11:38:24.938Z,0.30
2023-03-27T11:39:44.505Z,0.40
2023-03-27T11:40:47.878Z,0.60
2023-03-27T11:41:57.205Z,0.57
2023-03-27T11:42:59.056Z,0.50
2023-03-27T11:44:00.890Z,0.93
2023-03-27T11:45:07.267Z,0.45
2023-03-27T11:46:47.890Z,0.47
2023-03-27T11:47:55.694Z,0.33
2023-03-27T11:49:09.458Z,0.60
2023-03-27T11:50:17.235Z,0.20
2023-03-27T11:51:33.899Z,1.05
2023-03-27T11:52:50.762Z,0.60
2023-03-27T11:54:10.443Z,0.60
2023-03-27T11:55:24.303Z,0.32
2023-03-27T11:56:44.842Z,0.45
2023-03-27T11:58:15.974Z,0.45
2023-03-27T11:59:17.678Z,0.30
2023-03-27T12:00:34.542Z,0.60
2023-03-27T12:02:03.079Z,0.57
2023-03-27T12:03:43.564Z,0.20
2023-03-27T12:04:55.761Z,0.55
2023-03-27T12:06:22.448Z,0.20
2023-03-27T12:07:36.347Z,0.22
2023-03-27T12:09:10.276Z,0.60
2023-03-27T12:10:37.582Z,0.30
2023-03-27T12:11:47.859Z,0.40
2023-03-27T12:13:38.636Z,0.30
2023-03-27T12:15:03.959Z,0.30
2023-03-27T12:16:33.397Z,0.35
2023-03-27T12:17:58.123Z,0.30
2023-03-27T12:19:17.276Z,0.38
2023-03-27T12:20:54.236Z,0.35
2023-03-27T12:22:20.971Z,0.30
2023-03-27T12:24:12.118Z,0.30
2023-03-27T12:25:15.389Z,0.20
2023-03-27T12:26:25.123Z,0.30
2023-03-27T12:27:52.024Z,0.40
2023-03-27T12:29:30.433Z,0.50
2023-03-27T12:31:04.017Z,0.40
2023-03-27T12:32:43.890Z,0.32
2023-03-27T12:34:04.837Z,0.30
2023-03-27T12:35:42.013Z,0.30
2023-03-27T12:36:48.184Z,0.65
2023-03-27T12:38:02.031Z,0.52
2023-03-27T12:39:21.113Z,1.27
2023-03-27T12:40:37.420Z,0.30
2023-03-27T12:41:44.541Z,0.40
2023-03-27T12:42:49.024Z,0.40
2023-03-27T12:43:56.925Z,0.30
2023-03-27T12:45:18.229Z,0.30
2023-03-27T12:46:29.166Z,0.40
2023-03-27T12:47:31.436Z,0.50
2023-03-27T12:48:34.831Z,0.30
2023-03-27T12:49:47.771Z,0.52
2023-03-27T12:50:58.546Z,0.43
2023-03-27T12:52:02.729Z,0.35
2023-03-27T12:53:08.869Z,0.38
2023-03-27T12:54:23.337Z,0.50
2023-03-27T12:55:36.222Z,0.53
2023-03-27T12:56:38.601Z,0.38
2023-03-27T12:57:45.191Z,0.35
2023-03-27T12:58:49.353Z,0.30
2023-03-27T12:59:54.245Z,0.50
2023-03-27T13:01:00.352Z,0.40
2023-03-27T13:02:06.254Z,0.40
2023-03-27T13:03:17.144Z,0.40
2023-03-27T13:04:51.383Z,0.55
2023-03-27T13:05:59.276Z,0.20
2023-03-27T13:07:16.448Z,0.23
2023-03-27T13:08:37.556Z,0.13
2023-03-27T13:09:42.119Z,0.20
2023-03-27T13:10:44.440Z,0.50
2023-03-27T13:12:14.280Z,0.50
2023-03-27T13:13:39.303Z,0.60
2023-03-27T13:15:25.779Z,0.17
2023-03-27T13:16:47.948Z,0.25
2023-03-27T13:17:55.522Z,0.10
2023-03-27T13:19:09.407Z,0.57
2023-03-27T13:20:45.943Z,0.30
2023-03-27T13:22:18.380Z,0.10
2023-03-27T13:23:25.828Z,0.30
2023-03-27T13:24:30.677Z,0.38
2023-03-27T13:25:49.605Z,0.30
2023-03-27T13:26:54.131Z,0.43
2023-03-27T13:28:50.658Z,0.40
2023-03-27T13:29:57.917Z,0.30
2023-03-27T13:31:03.031Z,0.22
2023-03-27T13:32:24.223Z,0.30
2023-03-27T13:33:38.321Z,0.40
2023-03-27T13:34:41.735Z,0.30
2023-03-27T13:36:02.094Z,0.40
2023-03-27T13:37:10.034Z,0.52
2023-03-27T13:38:13.464Z,0.60
2023-03-27T13:39:24.523Z,0.47
2023-03-27T13:40:38.610Z,0.40
2023-03-27T13:41:46.774Z,0.47
2023-03-27T13:42:52.463Z,0.70
2023-03-27T13:43:55.120Z,0.40
2023-03-27T13:45:17.635Z,0.60
2023-03-27T13:46:25.271Z,0.40
2023-03-27T13:47:28.263Z,0.70
2023-03-27T13:49:05.647Z,0.50
2023-03-27T13:50:07.323Z,0.40
2023-03-27T13:51:47.851Z,0.20
2023-03-27T13:53:21.756Z,0.57
2023-03-27T13:54:59.547Z,0.40
2023-03-27T13:56:11.250Z,0.73
2023-03-27T13:57:34.941Z,0.40
2023-03-27T13:59:17.624Z,0.40
2023-03-27T14:00:24.357Z,0.70
2023-03-27T14:01:40.326Z,1.00
2023-03-27T14:02:56.865Z,0.85
2023-03-27T14:04:23.502Z,0.50
2023-03-27T14:05:47.904Z,0.30
2023-03-27T14:07:47.957Z,0.20
2023-03-27T14:09:13.258Z,0.25
2023-03-27T14:10:36.120Z,0.20
2023-03-27T14:12:11.233Z,0.30
2023-03-27T14:13:37.187Z,0.40
2023-03-27T14:15:03.738Z,0.20
2023-03-27T14:16:44.935Z,0.40
2023-03-27T14:18:12.738Z,0.40
2023-03-27T14:19:47.744Z,0.20
2023-03-27T14:20:55.429Z,0.30
2023-03-27T14:22:15.765Z,0.30
2023-03-27T14:23:28.521Z,0.20
2023-03-27T14:24:41.596Z,0.40
2023-03-27T14:25:47.691Z,0.40
2023-03-27T14:26:49.547Z,0.30
2023-03-27T14:27:54.216Z,0.38
2023-03-27T14:29:02.105Z,0.30
2023-03-27T14:30:15.690Z,0.77
2023-03-27T14:31:19.535Z,0.45
2023-03-27T14:32:21.439Z,0.13
2023-03-27T14:33:23.271Z,0.30
2023-03-27T14:34:25.552Z,0.52
2023-03-27T14:35:33.488Z,0.82
2023-03-27T14:36:41.894Z,0.30
2023-03-27T14:37:44.978Z,0.45
2023-03-27T14:38:47.293Z,0.52
2023-03-27T14:39:59.520Z,0.50
2023-03-27T14:41:03.890Z,0.30
2023-03-27T14:42:16.485Z,0.55
2023-03-27T14:43:21.091Z,1.10
2023-03-27T14:44:29.554Z,0.80
2023-03-27T14:45:52.662Z,0.50
2023-03-27T14:47:03.826Z,0.80
2023-03-27T14:48:21.130Z,0.60
2023-03-27T14:49:28.427Z,0.40
2023-03-27T14:50:31.372Z,0.60
2023-03-27T14:51:41.881Z,0.73
2023-03-27T14:52:44.447Z,0.60
2023-03-27T14:53:49.479Z,1.35
2023-03-27T14:54:55.475Z,0.85
2023-03-27T14:56:04.548Z,0.40
2023-03-27T14:57:09.229Z,0.60
2023-03-27T14:58:18.365Z,0.63
2023-03-27T14:59:24.781Z,1.00
2023-03-27T15:00:33.515Z,0.40
2023-03-27T15:01:35.454Z,0.50
2023-03-27T15:02:39.318Z,0.60
2023-03-27T15:03:43.327Z,0.40
2023-03-27T15:04:45.376Z,0.73
2023-03-27T15:06:14.574Z,0.50
2023-03-27T15:07:20.670Z,0.63
2023-03-27T15:08:23.451Z,0.50
2023-03-27T15:09:25.156Z,0.40
2023-03-27T15:10:31.652Z,0.50
2023-03-27T15:11:39.929Z,0.45
2023-03-27T15:12:47.805Z,0.30
2023-03-27T15:13:49.817Z,0.40
2023-03-27T15:14:52.988Z,0.40
2023-03-27T15:15:58.891Z,0.30
2023-03-27T15:17:06.791Z,0.52
2023-03-27T15:18:43.863Z,0.30
2023-03-27T15:19:49.434Z,0.70
2023-03-27T15:20:52.821Z,0.50
2023-03-27T15:21:59.048Z,0.40
2023-03-27T15:23:14.613Z,0.50